createdAt,value
2022-11-09T00:01:27.185Z,86.05
2022-11-09T00:04:01.362Z,85.44
2022-11-09T00:06:30.367Z,85.48
2022-11-09T00:09:02.646Z,85.66
2022-11-09T00:11:34.746Z,85.24
2022-11-09T00:14:02.688Z,84.84
2022-11-09T00:16:31.765Z,84.99
2022-11-09T00:19:01.065Z,84.91
2022-11-09T00:21:29.369Z,84.76
2022-11-09T00:23:58.823Z,85.06
2022-11-09T00:26:26.847Z,84.83
2022-11-09T00:28:54.772Z,84.71
2022-11-09T00:31:24.976Z,85.09
2022-11-09T00:33:54.573Z,84.40
2022-11-09T00:36:25.667Z,84.58
2022-11-09T00:38:55.243Z,84.59
2022-11-09T00:41:23.527Z,84.41
2022-11-09T00:43:52.837Z,84.31
2022-11-09T00:46:21.595Z,84.57
2022-11-09T00:48:52.617Z,84.87
2022-11-09T00:51:20.583Z,85.08
2022-11-09T00:53:55.143Z,85.01
2022-11-09T00:56:24.419Z,84.52
2022-11-09T00:58:55.639Z,85.02
2022-11-09T01:01:25.755Z,84.84
2022-11-09T01:03:53.843Z,84.77
2022-11-09T01:06:24.123Z,85.14
2022-11-09T01:08:53.954Z,84.88
2022-11-09T01:11:22.752Z,84.91
2022-11-09T01:13:54.083Z,85.07
2022-11-09T01:16:23.747Z,85.03
2022-11-09T01:18:55.416Z,85.03
2022-11-09T01:21:26.135Z,84.91
2022-11-09T01:23:56.423Z,84.67
2022-11-09T01:26:24.182Z,84.80
2022-11-09T01:28:52.844Z,84.81
2022-11-09T01:31:22.181Z,85.00
2022-11-09T01:33:50.172Z,85.16
2022-11-09T01:36:20.626Z,85.42
2022-11-09T01:38:49.260Z,85.37
2022-11-09T01:41:22.107Z,85.35
2022-11-09T01:44:11.281Z,85.29
2022-11-09T01:46:49.324Z,85.36
2022-11-09T01:49:24.586Z,85.16
2022-11-09T01:51:57.952Z,85.09
2022-11-09T01:54:32.170Z,85.21
2022-11-09T01:57:06.981Z,85.36
2022-11-09T01:59:39.217Z,85.12
2022-11-09T02:02:08.518Z,85.32
2022-11-09T02:04:41.904Z,85.68
2022-11-09T02:07:12.736Z,85.43
2022-11-09T02:09:45.877Z,85.66
2022-11-09T02:12:16.770Z,85.89
2022-11-09T02:14:46.667Z,86.00
2022-11-09T02:17:15.200Z,85.64
2022-11-09T02:19:43.937Z,85.21
2022-11-09T02:22:13.530Z,85.23
2022-11-09T02:24:42.526Z,84.94
2022-11-09T02:27:10.880Z,85.08
2022-11-09T02:29:41.771Z,85.28
2022-11-09T02:32:14.317Z,85.16
2022-11-09T02:34:42.315Z,85.45
2022-11-09T02:37:10.863Z,85.91
2022-11-09T02:39:41.078Z,85.17
2022-11-09T02:42:13.715Z,85.90
2022-11-09T02:44:49.150Z,86.34
2022-11-09T02:47:18.067Z,86.09
2022-11-09T02:49:47.755Z,86.17
2022-11-09T02:52:15.882Z,86.25
2022-11-09T02:54:47.972Z,86.43
2022-11-09T02:57:16.192Z,86.42
2022-11-09T02:59:44.434Z,86.47
2022-11-09T03:02:13.474Z,87.02
2022-11-09T03:04:41.528Z,86.84
2022-11-09T03:07:09.981Z,86.86
2022-11-09T03:09:39.424Z,86.87
2022-11-09T03:12:23.398Z,86.71
2022-11-09T03:14:52.718Z,86.79
2022-11-09T03:17:21.238Z,87.06
2022-11-09T03:19:49.243Z,87.19
2022-11-09T03:22:18.494Z,87.17
2022-11-09T03:24:47.642Z,87.49
2022-11-09T03:27:18.078Z,87.57
2022-11-09T03:29:48.835Z,87.56
2022-11-09T03:32:16.858Z,87.79
2022-11-09T03:34:44.854Z,87.86
2022-11-09T03:37:15.447Z,87.72
2022-11-09T03:39:43.878Z,87.04
2022-11-09T03:42:12.218Z,87.19
2022-11-09T03:44:42.997Z,87.35
2022-11-09T03:47:10.913Z,87.37
2022-11-09T03:49:39.326Z,87.23
2022-11-09T03:52:07.225Z,87.05
2022-11-09T03:54:35.176Z,87.11
2022-11-09T03:57:03.982Z,87.61
2022-11-09T03:59:31.967Z,88.63
2022-11-09T04:02:03.098Z,88.72
2022-11-09T04:04:31.695Z,88.84
2022-11-09T04:06:59.714Z,88.49
2022-11-09T04:09:27.671Z,88.80
2022-11-09T04:11:56.577Z,88.78
2022-11-09T04:14:24.485Z,88.27
2022-11-09T04:16:52.912Z,88.12
2022-11-09T04:19:22.663Z,88.05
2022-11-09T04:21:50.890Z,88.24
2022-11-09T04:24:18.868Z,88.65
2022-11-09T04:26:49.060Z,88.66
2022-11-09T04:29:17.060Z,88.61
2022-11-09T04:31:45.433Z,88.80
2022-11-09T04:34:13.927Z,88.77
2022-11-09T04:36:43.436Z,89.08
2022-11-09T04:39:11.889Z,89.11
2022-11-09T04:41:40.917Z,89.21
2022-11-09T04:44:08.916Z,89.20
2022-11-09T04:46:37.485Z,89.34
2022-11-09T04:49:05.879Z,89.63
2022-11-09T04:51:33.835Z,89.53
2022-11-09T04:54:03.119Z,89.60
2022-11-09T04:56:31.512Z,89.46
2022-11-09T04:58:59.866Z,89.88
2022-11-09T05:01:28.314Z,90.19
2022-11-09T05:03:56.257Z,89.51
2022-11-09T05:06:33.873Z,89.40
2022-11-09T05:09:06.575Z,89.66
2022-11-09T05:11:35.744Z,89.65
2022-11-09T05:14:04.026Z,89.63
2022-11-09T05:16:32.619Z,90.30
2022-11-09T05:19:00.603Z,90.59
2022-11-09T05:21:29.033Z,89.83
2022-11-09T05:24:03.346Z,90.05
2022-11-09T05:26:34.598Z,89.66
2022-11-09T05:29:05.814Z,90.33
2022-11-09T05:31:34.404Z,90.10
2022-11-09T05:34:02.433Z,89.91
2022-11-09T05:36:33.976Z,89.63
2022-11-09T05:39:02.301Z,90.15
2022-11-09T05:41:30.689Z,90.19
2022-11-09T05:44:00.102Z,90.06
2022-11-09T05:46:27.995Z,89.72
2022-11-09T05:48:56.873Z,89.78
2022-11-09T05:51:24.815Z,90.19
2022-11-09T05:53:53.258Z,90.28
2022-11-09T05:56:21.279Z,90.35
2022-11-09T05:58:49.211Z,90.31
2022-11-09T06:01:19.815Z,89.84
2022-11-09T06:03:49.083Z,89.79
2022-11-09T06:06:18.072Z,89.84
2022-11-09T06:08:46.155Z,89.85
2022-11-09T06:11:21.869Z,89.57
2022-11-09T06:13:52.048Z,89.60
2022-11-09T06:16:22.278Z,89.45
2022-11-09T06:18:50.253Z,89.49
2022-11-09T06:21:18.260Z,89.98
2022-11-09T06:23:47.259Z,89.73
2022-11-09T06:26:15.193Z,89.95
2022-11-09T06:28:43.538Z,90.49
2022-11-09T06:31:14.258Z,89.95
2022-11-09T06:33:43.629Z,89.60
2022-11-09T06:36:12.748Z,89.57
2022-11-09T06:38:41.091Z,89.26
2022-11-09T06:41:10.630Z,89.36
2022-11-09T06:43:38.948Z,89.85
2022-11-09T06:46:07.499Z,90.82
2022-11-09T06:48:35.915Z,90.82
2022-11-09T06:51:06.698Z,90.40
2022-11-09T06:53:38.425Z,89.90
2022-11-09T06:56:07.359Z,89.99
2022-11-09T06:58:35.501Z,89.76
2022-11-09T07:01:09.082Z,89.59
2022-11-09T07:03:37.691Z,89.95
2022-11-09T07:06:09.200Z,89.95
2022-11-09T07:08:40.119Z,89.69
2022-11-09T07:11:09.419Z,90.09
2022-11-09T07:13:38.003Z,89.77
2022-11-09T07:16:07.413Z,89.19
2022-11-09T07:18:35.914Z,88.98
2022-11-09T07:21:08.859Z,88.76
2022-11-09T07:23:43.957Z,88.65
2022-11-09T07:26:12.068Z,88.38
2022-11-09T07:28:40.461Z,88.84
2022-11-09T07:31:09.989Z,88.56
2022-11-09T07:33:38.362Z,88.97
2022-11-09T07:36:07.836Z,88.65
2022-11-09T07:38:36.890Z,90.20
2022-11-09T07:41:06.622Z,88.76
2022-11-09T07:43:35.314Z,88.44
2022-11-09T07:46:06.471Z,88.43
2022-11-09T07:48:34.469Z,88.25
2022-11-09T07:51:02.906Z,88.97
2022-11-09T07:53:32.026Z,89.06
2022-11-09T07:56:00.921Z,88.72
2022-11-09T07:58:30.993Z,88.94
2022-11-09T08:01:00.148Z,89.00
2022-11-09T08:03:28.318Z,89.06
2022-11-09T08:05:59.021Z,89.66
2022-11-09T08:08:28.976Z,88.52
2022-11-09T08:10:58.478Z,88.27
2022-11-09T08:13:26.972Z,88.71
2022-11-09T08:15:57.231Z,88.45
2022-11-09T08:18:25.213Z,88.33
2022-11-09T08:20:54.028Z,88.17
2022-11-09T08:23:23.140Z,88.11
2022-11-09T08:25:51.849Z,88.04
2022-11-09T08:28:20.182Z,87.69
2022-11-09T08:30:58.577Z,87.39
2022-11-09T08:33:28.760Z,87.41
2022-11-09T08:35:57.014Z,87.79
2022-11-09T08:38:27.011Z,87.83
2022-11-09T08:40:59.551Z,88.25
2022-11-09T08:43:28.461Z,88.37
2022-11-09T08:45:57.799Z,88.02
2022-11-09T08:48:26.022Z,88.45
2022-11-09T08:50:55.568Z,88.88
2022-11-09T08:53:24.254Z,89.69
2022-11-09T08:55:52.375Z,89.84
2022-11-09T08:58:22.620Z,89.53
2022-11-09T09:00:50.876Z,89.80
2022-11-09T09:03:20.668Z,89.44
2022-11-09T09:05:49.537Z,90.46
2022-11-09T09:08:21.883Z,89.69
2022-11-09T09:10:51.197Z,88.88
2022-11-09T09:13:22.675Z,88.64
2022-11-09T09:15:51.915Z,88.49
2022-11-09T09:18:21.987Z,88.64
2022-11-09T09:20:51.845Z,88.26
2022-11-09T09:23:19.794Z,87.75
2022-11-09T09:25:48.360Z,88.16
2022-11-09T09:28:16.750Z,87.96
2022-11-09T09:30:44.802Z,87.31
2022-11-09T09:33:13.073Z,87.64
2022-11-09T09:35:44.097Z,87.33
2022-11-09T09:38:12.365Z,86.79
2022-11-09T09:40:48.649Z,86.71
2022-11-09T09:43:30.958Z,87.99
2022-11-09T09:46:02.325Z,88.48
2022-11-09T09:48:36.779Z,88.15
2022-11-09T09:51:14.657Z,87.84
2022-11-09T09:53:46.910Z,87.87
2022-11-09T09:56:21.178Z,87.75
2022-11-09T09:58:54.753Z,88.29
2022-11-09T10:01:25.398Z,87.80
2022-11-09T10:03:53.371Z,86.60
2022-11-09T10:06:41.203Z,85.99
2022-11-09T10:09:24.277Z,86.13
2022-11-09T10:12:01.670Z,84.96
2022-11-09T10:14:50.657Z,86.19
2022-11-09T10:17:28.530Z,86.21
2022-11-09T10:20:15.940Z,85.40
2022-11-09T10:22:57.512Z,85.75
2022-11-09T10:25:57.875Z,85.54
2022-11-09T10:28:27.445Z,85.52
2022-11-09T10:30:56.081Z,85.87
2022-11-09T10:33:24.487Z,86.09
2022-11-09T10:36:03.836Z,85.02
2022-11-09T10:38:41.389Z,84.94
2022-11-09T10:41:33.462Z,85.39
2022-11-09T10:44:21.112Z,85.12
2022-11-09T10:47:11.724Z,85.18
2022-11-09T10:50:09.272Z,84.21
2022-11-09T10:53:11.052Z,85.28
2022-11-09T10:56:06.681Z,84.45
2022-11-09T10:58:55.693Z,83.90
2022-11-09T11:01:42.790Z,83.25
2022-11-09T11:04:30.758Z,82.45
2022-11-09T11:07:21.905Z,82.75
2022-11-09T11:10:19.238Z,80.28
2022-11-09T11:13:25.439Z,81.50
2022-11-09T11:16:27.627Z,81.35
2022-11-09T11:19:33.942Z,80.50
2022-11-09T11:22:24.352Z,80.19
2022-11-09T11:25:20.378Z,79.37
2022-11-09T11:28:19.980Z,79.85
2022-11-09T11:31:14.240Z,79.93
2022-11-09T11:34:03.942Z,79.15
2022-11-09T11:37:01.043Z,78.93
2022-11-09T11:40:00.333Z,79.07
2022-11-09T11:43:00.174Z,77.85
2022-11-09T11:45:51.162Z,77.11
2022-11-09T11:48:59.275Z,76.93
2022-11-09T11:51:54.243Z,76.82
2022-11-09T11:54:53.107Z,76.68
2022-11-09T11:57:49.624Z,76.16
2022-11-09T12:00:42.783Z,75.48
2022-11-09T12:03:41.111Z,75.46
2022-11-09T12:06:39.782Z,75.59
2022-11-09T12:09:41.686Z,75.81
2022-11-09T12:12:40.895Z,76.36
2022-11-09T12:15:43.949Z,76.24
2022-11-09T12:18:43.407Z,76.31
2022-11-09T12:21:39.013Z,75.42
2022-11-09T12:24:30.731Z,75.96
2022-11-09T12:27:53.107Z,77.42
2022-11-09T12:30:59.758Z,78.01
2022-11-09T12:33:50.176Z,78.44
2022-11-09T12:36:47.063Z,78.41
2022-11-09T12:39:38.571Z,77.13
2022-11-09T12:42:33.239Z,75.54
2022-11-09T12:45:27.390Z,74.96
2022-11-09T12:48:23.776Z,74.48
2022-11-09T12:51:12.312Z,74.52
2022-11-09T12:54:03.567Z,76.84
2022-11-09T12:56:54.883Z,78.63
2022-11-09T12:59:50.107Z,77.92
2022-11-09T13:02:39.388Z,77.95
2022-11-09T13:05:33.105Z,78.76
2022-11-09T13:08:26.350Z,79.40
2022-11-09T13:11:23.066Z,79.36
2022-11-09T13:14:34.944Z,77.24
2022-11-09T13:17:54.431Z,74.04
2022-11-09T13:20:55.985Z,74.89
2022-11-09T13:24:02.205Z,72.04
2022-11-09T13:26:59.552Z,71.60
2022-11-09T13:29:56.451Z,72.56
2022-11-09T13:33:25.783Z,72.85
2022-11-09T13:36:18.805Z,72.96
2022-11-09T13:39:40.013Z,72.31
2022-11-09T13:42:34.547Z,72.51
2022-11-09T13:45:28.101Z,72.71
2022-11-09T13:48:36.426Z,72.56
2022-11-09T13:51:26.866Z,73.21
2022-11-09T13:54:30.599Z,73.67
2022-11-09T13:57:17.734Z,73.48
2022-11-09T14:00:08.108Z,73.83
2022-11-09T14:03:00.767Z,73.80
2022-11-09T14:05:52.356Z,73.81
2022-11-09T14:08:43.309Z,73.86
2022-11-09T14:12:04.811Z,74.03
2022-11-09T14:15:10.236Z,74.14
2022-11-09T14:18:17.468Z,73.94
2022-11-09T14:21:14.704Z,73.77
2022-11-09T14:24:04.935Z,73.90
2022-11-09T14:27:03.613Z,73.81
2022-11-09T14:29:53.544Z,74.51
2022-11-09T14:32:41.446Z,74.47
2022-11-09T14:35:32.059Z,74.52
2022-11-09T14:38:22.401Z,74.34
2022-11-09T14:41:22.545Z,74.56
2022-11-09T14:44:17.101Z,74.40
2022-11-09T14:47:04.428Z,74.66
2022-11-09T14:49:52.582Z,75.02
2022-11-09T14:52:42.428Z,75.19
2022-11-09T14:55:29.787Z,75.68
2022-11-09T14:58:18.726Z,75.93
2022-11-09T15:01:11.828Z,76.87
2022-11-09T15:04:11.822Z,76.99
2022-11-09T15:07:03.056Z,77.36
2022-11-09T15:09:54.375Z,77.03
2022-11-09T15:12:46.290Z,76.93
2022-11-09T15:15:36.362Z,77.26
2022-11-09T15:18:33.433Z,77.76
2022-11-09T15:21:35.336Z,77.58
2022-11-09T15:24:26.210Z,77.93
2022-11-09T15:27:31.919Z,78.17
2022-11-09T15:30:33.677Z,77.90
2022-11-09T15:33:25.840Z,77.74
2022-11-09T15:36:27.075Z,77.80
2022-11-09T15:39:18.641Z,76.99
2022-11-09T15:42:07.165Z,77.41
2022-11-09T15:44:55.954Z,77.49
2022-11-09T15:47:49.965Z,77.65
2022-11-09T15:50:37.138Z,77.80
2022-11-09T15:53:24.312Z,78.11
2022-11-09T15:56:18.435Z,78.25
2022-11-09T15:59:09.046Z,78.32
2022-11-09T16:01:55.764Z,78.39
2022-11-09T16:04:43.540Z,78.54
2022-11-09T16:07:29.886Z,79.24
2022-11-09T16:10:18.384Z,78.76
2022-11-09T16:13:05.329Z,78.60
2022-11-09T16:15:54.437Z,78.33
2022-11-09T16:18:40.746Z,78.92
2022-11-09T16:21:28.380Z,78.47
2022-11-09T16:24:17.166Z,78.50
2022-11-09T16:27:12.792Z,79.04
2022-11-09T16:30:10.879Z,79.12
2022-11-09T16:33:03.038Z,78.87
2022-11-09T16:35:50.038Z,78.99
2022-11-09T16:38:40.888Z,79.18
2022-11-09T16:41:27.591Z,79.35
2022-11-09T16:44:15.904Z,79.83
2022-11-09T16:47:04.484Z,79.66
2022-11-09T16:49:53.571Z,80.10
2022-11-09T16:52:40.175Z,80.53
2022-11-09T16:55:29.584Z,80.52
2022-11-09T16:58:16.051Z,80.21
2022-11-09T17:01:11.613Z,80.22
2022-11-09T17:03:59.184Z,80.26
2022-11-09T17:06:48.703Z,80.34
2022-11-09T17:09:35.407Z,80.75
2022-11-09T17:12:22.392Z,81.10
2022-11-09T17:15:10.100Z,81.52
2022-11-09T17:17:57.380Z,81.93
2022-11-09T17:20:44.972Z,81.66
2022-11-09T17:23:34.366Z,81.91
2022-11-09T17:26:22.127Z,82.04
2022-11-09T17:29:10.152Z,82.20
2022-11-09T17:31:57.879Z,82.38
2022-11-09T17:34:44.476Z,82.70
2022-11-09T17:37:34.151Z,82.73
2022-11-09T17:40:22.320Z,83.01
2022-11-09T17:43:10.114Z,83.22
2022-11-09T17:45:56.770Z,83.47
2022-11-09T17:48:46.247Z,84.15
2022-11-09T17:51:33.819Z,84.23
2022-11-09T17:54:21.505Z,84.21
2022-11-09T17:57:10.605Z,84.62
2022-11-09T18:00:00.415Z,84.29
2022-11-09T18:02:48.255Z,84.44
2022-11-09T18:05:38.778Z,84.44
2022-11-09T18:08:25.705Z,84.30
2022-11-09T18:11:12.658Z,84.05
2022-11-09T18:14:01.624Z,84.26
2022-11-09T18:16:48.648Z,84.32
2022-11-09T18:19:36.122Z,84.67
2022-11-09T18:22:22.412Z,85.08
2022-11-09T18:25:10.867Z,85.17
2022-11-09T18:27:58.240Z,85.21
2022-11-09T18:30:46.871Z,85.39
2022-11-09T18:33:33.937Z,85.61
2022-11-09T18:36:22.582Z,85.87
2022-11-09T18:39:09.445Z,85.70
2022-11-09T18:41:57.483Z,85.68
2022-11-09T18:44:44.038Z,86.19
2022-11-09T18:47:33.121Z,86.16
2022-11-09T18:50:21.857Z,86.06
2022-11-09T18:53:08.744Z,86.10
2022-11-09T18:56:06.313Z,86.13
2022-11-09T18:58:55.791Z,86.38
2022-11-09T19:01:43.301Z,86.48
2022-11-09T19:04:31.778Z,86.44
2022-11-09T19:07:18.728Z,86.70
2022-11-09T19:10:08.643Z,87.02
2022-11-09T19:12:56.845Z,87.23
2022-11-09T19:15:46.864Z,87.76
2022-11-09T19:18:34.767Z,87.59
2022-11-09T19:21:37.897Z,88.17
2022-11-09T19:24:26.832Z,88.34
2022-11-09T19:27:14.090Z,88.07
2022-11-09T19:30:04.810Z,88.20
2022-11-09T19:32:55.892Z,88.58
2022-11-09T19:35:42.711Z,88.29
2022-11-09T19:38:31.204Z,88.40
2022-11-09T19:41:17.937Z,88.25
2022-11-09T19:44:07.587Z,88.01
2022-11-09T19:46:54.781Z,88.09
2022-11-09T19:49:42.732Z,88.11
2022-11-09T19:52:29.610Z,87.97
2022-11-09T19:55:19.015Z,88.10
2022-11-09T19:58:05.376Z,87.88
2022-11-09T20:00:53.550Z,88.22
2022-11-09T20:03:40.809Z,87.96
2022-11-09T20:06:30.428Z,88.41
2022-11-09T20:09:17.415Z,88.37
2022-11-09T20:12:24.574Z,88.03
2022-11-09T20:15:12.846Z,88.11
2022-11-09T20:18:00.694Z,88.22
2022-11-09T20:20:47.597Z,87.86
2022-11-09T20:23:35.273Z,88.15
2022-11-09T20:26:22.368Z,88.32
2022-11-09T20:29:11.223Z,88.22
2022-11-09T20:31:57.616Z,88.14
2022-11-09T20:34:45.811Z,88.22
2022-11-09T20:37:32.259Z,87.96
2022-11-09T20:40:20.228Z,87.97
2022-11-09T20:43:06.928Z,88.00
2022-11-09T20:45:57.253Z,88.13
2022-11-09T20:48:54.007Z,88.15
2022-11-09T20:51:42.505Z,87.81
2022-11-09T20:54:29.005Z,88.22
2022-11-09T20:57:16.654Z,88.22
2022-11-09T21:00:03.120Z,88.27
2022-11-09T21:02:51.564Z,88.31
2022-11-09T21:05:38.379Z,88.30
2022-11-09T21:08:26.263Z,88.52
2022-11-09T21:11:13.769Z,88.32
2022-11-09T21:14:01.911Z,88.47
2022-11-09T21:16:48.614Z,88.58
2022-11-09T21:19:37.941Z,88.88
2022-11-09T21:22:45.099Z,89.05
2022-11-09T21:25:49.908Z,89.22
2022-11-09T21:28:54.342Z,89.30
2022-11-09T21:31:41.868Z,89.59
2022-11-09T21:34:36.293Z,89.50
2022-11-09T21:37:26.194Z,89.48
2022-11-09T21:40:13.874Z,89.56
2022-11-09T21:43:01.830Z,89.82
2022-11-09T21:45:50.948Z,89.71
2022-11-09T21:48:38.406Z,89.65
2022-11-09T21:51:28.796Z,89.56
2022-11-09T21:54:21.537Z,89.74
2022-11-09T21:57:08.995Z,89.48
2022-11-09T21:59:58.311Z,89.59
2022-11-09T22:02:45.764Z,89.75
2022-11-09T22:05:33.689Z,89.74
2022-11-09T22:08:19.996Z,89.65
2022-11-09T22:11:09.608Z,89.95
2022-11-09T22:14:13.446Z,90.44
2022-11-09T22:17:05.906Z,90.87
2022-11-09T22:20:10.892Z,91.38
2022-11-09T22:22:58.498Z,91.32
2022-11-09T22:25:48.033Z,91.41
2022-11-09T22:28:37.449Z,91.41
2022-11-09T22:31:23.781Z,91.61
2022-11-09T22:34:11.344Z,91.88
2022-11-09T22:36:57.965Z,92.13
2022-11-09T22:39:47.555Z,92.41
2022-11-09T22:42:34.756Z,92.86
2022-11-09T22:45:23.447Z,93.25
2022-11-09T22:48:10.523Z,93.62
2022-11-09T22:50:57.773Z,93.61
2022-11-09T22:53:44.506Z,93.83
2022-11-09T22:56:32.683Z,93.82
2022-11-09T22:59:19.012Z,93.89
2022-11-09T23:02:08.000Z,93.77
2022-11-09T23:04:54.717Z,93.68
2022-11-09T23:07:43.123Z,93.48
2022-11-09T23:10:29.826Z,93.02
2022-11-09T23:13:17.623Z,92.80
2022-11-09T23:16:07.477Z,92.61
2022-11-09T23:18:56.786Z,92.85
2022-11-09T23:21:43.240Z,92.79
2022-11-09T23:24:48.141Z,92.65
2022-11-09T23:27:34.829Z,92.60
2022-11-09T23:30:23.521Z,92.63
2022-11-09T23:33:10.451Z,92.62
2022-11-09T23:36:01.223Z,92.62
2022-11-09T23:38:48.118Z,92.74
2022-11-09T23:41:35.875Z,93.24
2022-11-09T23:44:22.805Z,93.20
2022-11-09T23:47:10.634Z,93.39
2022-11-09T23:49:57.617Z,93.45
2022-11-09T23:52:46.573Z,93.79
2022-11-09T23:55:33.207Z,93.81
2022-11-09T23:58:20.994Z,93.75
